sensor_id;sensor_type;location;lat;lon;timestamp;pressure;altitude;pressure_sealevel;temperature;humidity
19890;BME280;10107;51.198;6.824;2023-07-29T00:02:47;-21812.59;;;19.00;100.00
19890;BME280;10107;51.198;6.824;2023-07-29T00:06:48;-21813.75;;;19.05;100.00
19890;BME280;10107;51.198;6.824;2023-07-29T00:10:51;-21813.91;;;19.05;100.00
19890;BME280;10107;51.198;6.824;2023-07-29T00:14:53;-21813.50;;;19.04;100.00
19890;BME280;10107;51.198;6.824;2023-07-29T00:18:55;-21813.50;;;19.04;100.00
19890;BME280;10107;51.198;6.824;2023-07-29T00:22:56;-21812.47;;;18.99;100.00
19890;BME280;10107;51.198;6.824;2023-07-29T00:27:00;-21810.75;;;18.93;100.00
19890;BME280;10107;51.198;6.824;2023-07-29T00:31:02;-21809.59;;;18.88;100.00
19890;BME280;10107;51.198;6.824;2023-07-29T00:35:05;-21808.81;;;18.85;100.00
19890;BME280;10107;51.198;6.824;2023-07-29T00:39:06;-21807.63;;;18.80;100.00
19890;BME280;10107;51.198;6.824;2023-07-29T00:43:09;-21805.41;;;18.72;100.00
19890;BME280;10107;51.198;6.824;2023-07-29T00:47:12;-21802.41;;;18.60;100.00
19890;BME280;10107;51.198;6.824;2023-07-29T00:51:15;-21799.78;;;18.50;100.00
19890;BME280;10107;51.198;6.824;2023-07-29T00:55:17;-21797.81;;;18.42;100.00
19890;BME280;10107;51.198;6.824;2023-07-29T00:59:21;-21795.59;;;18.33;100.00
19890;BME280;10107;51.198;6.824;2023-07-29T01:03:23;-21793.38;;;18.25;100.00
19890;BME280;10107;51.198;6.824;2023-07-29T01:07:30;-21793.25;;;18.24;100.00
19890;BME280;10107;51.198;6.824;2023-07-29T01:11:38;-21794.16;;;18.28;100.00
19890;BME280;10107;51.198;6.824;2023-07-29T01:15:50;-21794.94;;;18.31;100.00
19890;BME280;10107;51.198;6.824;2023-07-29T01:20:00;-21795.34;;;18.32;100.00
19890;BME280;10107;51.198;6.824;2023-07-29T01:24:05;-21795.59;;;18.33;100.00
19890;BME280;10107;51.198;6.824;2023-07-29T01:28:07;-21795.34;;;18.32;100.00
19890;BME280;10107;51.198;6.824;2023-07-29T01:32:12;-21796.38;;;18.36;100.00
19890;BME280;10107;51.198;6.824;2023-07-29T01:36:20;-21798.22;;;18.44;100.00
19890;BME280;10107;51.198;6.824;2023-07-29T01:40:26;-21799.50;;;18.49;100.00
19890;BME280;10107;51.198;6.824;2023-07-29T01:44:28;-21800.31;;;18.52;100.00
19890;BME280;10107;51.198;6.824;2023-07-29T01:48:30;-21801.09;;;18.55;100.00
19890;BME280;10107;51.198;6.824;2023-07-29T01:52:32;-21801.47;;;18.56;100.00
19890;BME280;10107;51.198;6.824;2023-07-29T01:56:35;-21801.47;;;18.56;100.00
19890;BME280;10107;51.198;6.824;2023-07-29T02:00:37;-21801.75;;;18.57;100.00
19890;BME280;10107;51.198;6.824;2023-07-29T02:04:39;-21801.59;;;18.57;100.00
19890;BME280;10107;51.198;6.824;2023-07-29T02:08:41;-21801.34;;;18.56;100.00
19890;BME280;10107;51.198;6.824;2023-07-29T02:12:44;-21801.09;;;18.55;100.00
19890;BME280;10107;51.198;6.824;2023-07-29T02:16:46;-21800.56;;;18.53;100.00
19890;BME280;10107;51.198;6.824;2023-07-29T02:20:47;-21800.56;;;18.53;100.00
19890;BME280;10107;51.198;6.824;2023-07-29T02:24:50;-21800.56;;;18.53;100.00
19890;BME280;10107;51.198;6.824;2023-07-29T02:28:53;-21800.69;;;18.53;100.00
19890;BME280;10107;51.198;6.824;2023-07-29T02:32:54;-21801.47;;;18.56;100.00
19890;BME280;10107;51.198;6.824;2023-07-29T02:36:56;-21802.13;;;18.59;100.00
19890;BME280;10107;51.198;6.824;2023-07-29T02:40:58;-21803.44;;;18.64;100.00
19890;BME280;10107;51.198;6.824;2023-07-29T02:45:01;-21803.97;;;18.66;100.00
19890;BME280;10107;51.198;6.824;2023-07-29T02:49:03;-21803.56;;;18.65;100.00
19890;BME280;10107;51.198;6.824;2023-07-29T02:53:05;-21803.44;;;18.64;100.00
19890;BME280;10107;51.198;6.824;2023-07-29T02:57:06;-21803.19;;;18.63;100.00
19890;BME280;10107;51.198;6.824;2023-07-29T03:01:09;-21803.19;;;18.63;100.00
19890;BME280;10107;51.198;6.824;2023-07-29T03:05:12;-21802.78;;;18.62;100.00
19890;BME280;10107;51.198;6.824;2023-07-29T03:09:13;-21801.88;;;18.58;100.00
19890;BME280;10107;51.198;6.824;2023-07-29T03:13:15;-21802.78;;;18.62;100.00
19890;BME280;10107;51.198;6.824;2023-07-29T03:17:18;-21803.19;;;18.63;100.00
19890;BME280;10107;51.198;6.824;2023-07-29T03:21:20;-21803.19;;;18.63;100.00
19890;BME280;10107;51.198;6.824;2023-07-29T03:25:21;-21803.19;;;18.63;100.00
19890;BME280;10107;51.198;6.824;2023-07-29T03:29:23;-21803.19;;;18.63;100.00
19890;BME280;10107;51.198;6.824;2023-07-29T03:33:26;-21803.19;;;18.63;100.00
19890;BME280;10107;51.198;6.824;2023-07-29T03:37:28;-21802.66;;;18.61;100.00
19890;BME280;10107;51.198;6.824;2023-07-29T03:41:30;-21800.81;;;18.54;100.00
19890;BME280;10107;51.198;6.824;2023-07-29T03:45:31;-21801.09;;;18.55;100.00
19890;BME280;10107;51.198;6.824;2023-07-29T03:49:35;-21801.34;;;18.56;100.00
19890;BME280;10107;51.198;6.824;2023-07-29T03:53:37;-21801.47;;;18.56;100.00
19890;BME280;10107;51.198;6.824;2023-07-29T03:57:38;-21802.00;;;18.58;100.00
19890;BME280;10107;51.198;6.824;2023-07-29T04:01:40;-21802.13;;;18.59;100.00
19890;BME280;10107;51.198;6.824;2023-07-29T04:05:43;-21802.78;;;18.62;100.00
19890;BME280;10107;51.198;6.824;2023-07-29T04:09:45;-21803.19;;;18.63;100.00
19890;BME280;10107;51.198;6.824;2023-07-29T04:13:47;-21802.66;;;18.61;100.00
19890;BME280;10107;51.198;6.824;2023-07-29T04:17:49;-21803.69;;;18.65;100.00
19890;BME280;10107;51.198;6.824;2023-07-29T04:21:52;-21803.56;;;18.65;100.00
19890;BME280;10107;51.198;6.824;2023-07-29T04:25:53;-21803.69;;;18.65;100.00
19890;BME280;10107;51.198;6.824;2023-07-29T04:29:55;-21803.84;;;18.66;100.00
19890;BME280;10107;51.198;6.824;2023-07-29T04:33:57;-21803.97;;;18.66;100.00
19890;BME280;10107;51.198;6.824;2023-07-29T04:38:00;-21804.34;;;18.68;100.00
19890;BME280;10107;51.198;6.824;2023-07-29T04:42:02;-21803.69;;;18.65;100.00
19890;BME280;10107;51.198;6.824;2023-07-29T04:46:06;-21802.13;;;18.59;100.00
19890;BME280;10107;51.198;6.824;2023-07-29T04:50:09;-21801.75;;;18.57;100.00
19890;BME280;10107;51.198;6.824;2023-07-29T04:54:12;-21802.25;;;18.59;100.00
19890;BME280;10107;51.198;6.824;2023-07-29T04:58:14;-21804.75;;;18.69;100.00
19890;BME280;10107;51.198;6.824;2023-07-29T05:02:16;-21808.28;;;18.83;100.00
19890;BME280;10107;51.198;6.824;2023-07-29T05:06:17;-21811.41;;;18.95;100.00
19890;BME280;10107;51.198;6.824;2023-07-29T05:10:20;-21814.03;;;19.06;100.00
19890;BME280;10107;51.198;6.824;2023-07-29T05:14:22;-21815.84;;;19.13;100.00
19890;BME280;10107;51.198;6.824;2023-07-29T05:18:24;-21816.25;;;19.14;100.00
19890;BME280;10107;51.198;6.824;2023-07-29T05:22:25;-21817.53;;;19.19;100.00
19890;BME280;10107;51.198;6.824;2023-07-29T05:26:28;-21819.25;;;19.26;100.00
19890;BME280;10107;51.198;6.824;2023-07-29T05:30:31;-21820.81;;;19.32;100.00
19890;BME280;10107;51.198;6.824;2023-07-29T05:34:34;-21820.81;;;19.32;100.00
19890;BME280;10107;51.198;6.824;2023-07-29T05:38:36;-21818.84;;;19.25;100.00
19890;BME280;10107;51.198;6.824;2023-07-29T05:42:39;-21817.03;;;19.17;100.00
19890;BME280;10107;51.198;6.824;2023-07-29T05:46:41;-21815.47;;;19.11;100.00
19890;BME280;10107;51.198;6.824;2023-07-29T05:50:42;-21814.16;;;19.06;100.00
19890;BME280;10107;51.198;6.824;2023-07-29T05:54:44;-21812.97;;;19.02;100.00
19890;BME280;10107;51.198;6.824;2023-07-29T05:58:47;-21811.94;;;18.97;100.00
19890;BME280;10107;51.198;6.824;2023-07-29T06:02:51;-21813.09;;;19.02;100.00
19890;BME280;10107;51.198;6.824;2023-07-29T06:06:56;-21816.63;;;19.16;100.00
19890;BME280;10107;51.198;6.824;2023-07-29T06:10:57;-21819.91;;;19.29;100.00
19890;BME280;10107;51.198;6.824;2023-07-29T06:15:00;-21822.38;;;19.38;100.00
19890;BME280;10107;51.198;6.824;2023-07-29T06:19:02;-21823.28;;;19.42;100.00
19890;BME280;10107;51.198;6.824;2023-07-29T06:23:05;-21825.78;;;19.52;100.00
19890;BME280;10107;51.198;6.824;2023-07-29T06:27:06;-21835.03;;;19.88;100.00
19890;BME280;10107;51.198;6.824;2023-07-29T06:31:09;-21844.81;;;20.27;100.00
19890;BME280;10107;51.198;6.824;2023-07-29T06:35:11;-21839.84;;;20.07;100.00
19890;BME280;10107;51.198;6.824;2023-07-29T06:39:13;-21835.44;;;19.90;100.00
19890;BME280;10107;51.198;6.824;2023-07-29T06:43:14;-21828.91;;;19.64;100.00
19890;BME280;10107;51.198;6.824;2023-07-29T06:47:17;-21826.94;;;19.56;100.00
19890;BME280;10107;51.198;6.824;2023-07-29T06:51:19;-21828.38;;;19.62;100.00
19890;BME280;10107;51.198;6.824;2023-07-29T06:55:21;-21837.63;;;19.98;100.00
19890;BME280;10107;51.198;6.824;2023-07-29T06:59:22;-21837.13;;;19.96;100.00
19890;BME280;10107;51.198;6.824;2023-07-29T07:03:26;-21833.47;;;19.82;100.00
19890;BME280;10107;51.198;6.824;2023-07-29T07:07:27;-21838.44;;;20.02;100.00
19890;BME280;10107;51.198;6.824;2023-07-29T07:11:29;-21845.72;;;20.30;100.00
19890;BME280;10107;51.198;6.824;2023-07-29T07:15:31;-21857.44;;;20.76;100.00
19890;BME280;10107;51.198;6.824;2023-07-29T07:19:34;-21866.28;;;21.11;100.00
19890;BME280;10107;51.198;6.824;2023-07-29T07:23:36;-21872.16;;;21.34;100.00
19890;BME280;10107;51.198;6.824;2023-07-29T07:27:37;-21915.13;;;23.04;100.00
19890;BME280;10107;51.198;6.824;2023-07-29T07:31:39;-21952.16;;;24.51;100.00
19890;BME280;10107;51.198;6.824;2023-07-29T07:35:42;-21951.66;;;24.49;100.00
19890;BME280;10107;51.198;6.824;2023-07-29T07:39:44;-22047.63;;;28.31;78.51
19890;BME280;10107;51.198;6.824;2023-07-29T07:43:45;-22168.81;;;33.18;60.38
19890;BME280;10107;51.198;6.824;2023-07-29T07:47:47;-22263.94;;;37.04;43.71
19890;BME280;10107;51.198;6.824;2023-07-29T07:51:50;-22221.78;;;35.33;42.02
19890;BME280;10107;51.198;6.824;2023-07-29T07:55:51;-22094.88;;;30.20;56.11
19890;BME280;10107;51.198;6.824;2023-07-29T07:59:53;-22080.69;;;29.64;59.54
19890;BME280;10107;51.198;6.824;2023-07-29T08:03:55;-22214.94;;;35.05;43.08
19890;BME280;10107;51.198;6.824;2023-07-29T08:07:58;-22295.50;;;38.33;34.12
19890;BME280;10107;51.198;6.824;2023-07-29T08:11:59;-22344.13;;;40.32;29.90
19890;BME280;10107;51.198;6.824;2023-07-29T08:16:01;-22324.50;;;39.51;32.05
19890;BME280;10107;51.198;6.824;2023-07-29T08:20:03;-22282.56;;;37.80;34.64
19890;BME280;10107;51.198;6.824;2023-07-29T08:24:06;-22190.38;;;34.05;38.76
19890;BME280;10107;51.198;6.824;2023-07-29T08:28:08;-22170.59;;;33.25;41.28
19890;BME280;10107;51.198;6.824;2023-07-29T08:32:11;-22179.47;;;33.61;40.64
19890;BME280;10107;51.198;6.824;2023-07-29T08:36:13;-22165.50;;;33.05;40.87
19890;BME280;10107;51.198;6.824;2023-07-29T08:40:16;-22140.19;;;32.03;44.81
19890;BME280;10107;51.198;6.824;2023-07-29T08:44:21;-22193.44;;;34.18;38.98
19890;BME280;10107;51.198;6.824;2023-07-29T08:48:29;-22208.25;;;34.78;38.38
19890;BME280;10107;51.198;6.824;2023-07-29T08:52:33;-22216.47;;;35.11;36.48
19890;BME280;10107;51.198;6.824;2023-07-29T08:56:37;-22202.03;;;34.52;36.98
19890;BME280;10107;51.198;6.824;2023-07-29T09:00:39;-22205.06;;;34.65;36.69
19890;BME280;10107;51.198;6.824;2023-07-29T09:04:42;-22227.72;;;35.57;35.65
19890;BME280;10107;51.198;6.824;2023-07-29T09:08:44;-22178.56;;;33.58;38.56
19890;BME280;10107;51.198;6.824;2023-07-29T09:12:48;-22102.94;;;30.53;44.78
19890;BME280;10107;51.198;6.824;2023-07-29T09:16:50;-22040.31;;;28.02;51.94
19890;BME280;10107;51.198;6.824;2023-07-29T09:20:52;-21995.94;;;26.25;60.30
19890;BME280;10107;51.198;6.824;2023-07-29T09:24:56;-21989.59;;;26.00;63.81
19890;BME280;10107;51.198;6.824;2023-07-29T09:29:00;-21998.13;;;26.34;63.40
19890;BME280;10107;51.198;6.824;2023-07-29T09:33:03;-22025.78;;;27.44;60.17
19890;BME280;10107;51.198;6.824;2023-07-29T09:37:05;-22048.13;;;28.33;54.35
19890;BME280;10107;51.198;6.824;2023-07-29T09:41:07;-22009.06;;;26.77;59.15
19890;BME280;10107;51.198;6.824;2023-07-29T09:45:10;-21990.13;;;26.02;63.80
19890;BME280;10107;51.198;6.824;2023-07-29T09:49:11;-21984.84;;;25.81;66.77
19890;BME280;10107;51.198;6.824;2023-07-29T09:53:14;-21985.59;;;25.84;66.01
19890;BME280;10107;51.198;6.824;2023-07-29T09:57:17;-21982.50;;;25.72;66.45
19890;BME280;10107;51.198;6.824;2023-07-29T10:01:21;-21975.16;;;25.42;66.07
19890;BME280;10107;51.198;6.824;2023-07-29T10:05:26;-21969.34;;;25.19;66.86
19890;BME280;10107;51.198;6.824;2023-07-29T10:09:28;-21969.88;;;25.21;68.88
19890;BME280;10107;51.198;6.824;2023-07-29T10:13:30;-22021.41;;;27.26;61.10
19890;BME280;10107;51.198;6.824;2023-07-29T10:17:35;-22021.28;;;27.26;60.89
19890;BME280;10107;51.198;6.824;2023-07-29T10:21:39;-22026.03;;;27.45;58.06
19890;BME280;10107;51.198;6.824;2023-07-29T10:25:45;-22086.06;;;29.85;52.43
19890;BME280;10107;51.198;6.824;2023-07-29T10:29:49;-22084.91;;;29.80;49.47
19890;BME280;10107;51.198;6.824;2023-07-29T10:33:52;-22041.84;;;28.08;54.58
19890;BME280;10107;51.198;6.824;2023-07-29T10:37:55;-22005.47;;;26.63;60.54
19890;BME280;10107;51.198;6.824;2023-07-29T10:41:58;-21983.69;;;25.76;65.73
19890;BME280;10107;51.198;6.824;2023-07-29T10:46:15;-21963.78;;;24.97;68.84
19890;BME280;10107;51.198;6.824;2023-07-29T10:50:21;-21958.38;;;24.76;71.68
19890;BME280;10107;51.198;6.824;2023-07-29T10:54:23;-21961.84;;;24.89;71.41
19890;BME280;10107;51.198;6.824;2023-07-29T10:58:25;-22016.66;;;27.08;62.81
19890;BME280;10107;51.198;6.824;2023-07-29T11:02:29;-22067.22;;;29.10;55.59
19890;BME280;10107;51.198;6.824;2023-07-29T11:11:13;-22097.81;;;30.32;46.05
19890;BME280;10107;51.198;6.824;2023-07-29T11:15:17;-22094.38;;;30.18;47.50
19890;BME280;10107;51.198;6.824;2023-07-29T11:19:19;-22069.94;;;29.20;50.76
19890;BME280;10107;51.198;6.824;2023-07-29T11:23:29;-22028.34;;;27.54;56.48
19890;BME280;10107;51.198;6.824;2023-07-29T11:27:31;-21973.34;;;25.35;63.47
19890;BME280;10107;51.198;6.824;2023-07-29T11:31:39;-21940.66;;;24.05;71.71
19890;BME280;10107;51.198;6.824;2023-07-29T11:35:41;-21948.28;;;24.36;74.58
19890;BME280;10107;51.198;6.824;2023-07-29T11:39:44;-21971.94;;;25.29;69.06
19890;BME280;10107;51.198;6.824;2023-07-29T11:43:46;-22027.47;;;27.51;60.14
19890;BME280;10107;51.198;6.824;2023-07-29T11:47:48;-22024.38;;;27.38;58.69
19890;BME280;10107;51.198;6.824;2023-07-29T11:51:49;-22022.81;;;27.32;58.35
19890;BME280;10107;51.198;6.824;2023-07-29T11:55:52;-22025.78;;;27.44;57.96
19890;BME280;10107;51.198;6.824;2023-07-29T11:59:54;-22016.53;;;27.07;58.31
19890;BME280;10107;51.198;6.824;2023-07-29T12:03:57;-22018.72;;;27.16;61.06
19890;BME280;10107;51.198;6.824;2023-07-29T12:07:59;-22047.50;;;28.31;57.56
19890;BME280;10107;51.198;6.824;2023-07-29T12:12:03;-22072.63;;;29.31;52.79
19890;BME280;10107;51.198;6.824;2023-07-29T12:16:05;-22071.97;;;29.29;50.69
19890;BME280;10107;51.198;6.824;2023-07-29T12:20:08;-22058.66;;;28.75;51.10
19890;BME280;10107;51.198;6.824;2023-07-29T12:24:12;-22068.91;;;29.16;51.26
19890;BME280;10107;51.198;6.824;2023-07-29T12:28:15;-22099.63;;;30.39;47.77
19890;BME280;10107;51.198;6.824;2023-07-29T12:32:17;-22114.19;;;30.98;46.85
19890;BME280;10107;51.198;6.824;2023-07-29T12:36:18;-22098.97;;;30.37;47.18
19890;BME280;10107;51.198;6.824;2023-07-29T12:40:21;-22083.25;;;29.74;49.82
19890;BME280;10107;51.198;6.824;2023-07-29T12:44:32;-22096.41;;;30.27;47.19
19890;BME280;10107;51.198;6.824;2023-07-29T12:48:34;-22064.94;;;29.00;49.45
19890;BME280;10107;51.198;6.824;2023-07-29T12:52:36;-22033.63;;;27.75;53.26
19890;BME280;10107;51.198;6.824;2023-07-29T12:56:40;-22037.88;;;27.92;53.53
19890;BME280;10107;51.198;6.824;2023-07-29T13:00:43;-22039.66;;;27.99;52.62
19890;BME280;10107;51.198;6.824;2023-07-29T13:04:45;-22036.06;;;27.85;54.35
19890;BME280;10107;51.198;6.824;2023-07-29T13:08:46;-22024.25;;;27.38;57.12
19890;BME280;10107;51.198;6.824;2023-07-29T13:12:48;-22001.84;;;26.48;58.48
19890;BME280;10107;51.198;6.824;2023-07-29T13:16:51;-21984.97;;;25.81;62.49
19890;BME280;10107;51.198;6.824;2023-07-29T13:20:53;-21982.13;;;25.70;64.63
19890;BME280;10107;51.198;6.824;2023-07-29T13:24:55;-21975.94;;;25.45;64.68
19890;BME280;10107;51.198;6.824;2023-07-29T13:28:57;-21971.94;;;25.29;67.48
19890;BME280;10107;51.198;6.824;2023-07-29T13:33:00;-21963.94;;;24.98;71.79
19890;BME280;10107;51.198;6.824;2023-07-29T13:37:02;-21959.00;;;24.78;74.05
19890;BME280;10107;51.198;6.824;2023-07-29T13:41:04;-21957.72;;;24.73;75.71
19890;BME280;10107;51.198;6.824;2023-07-29T13:45:07;-21960.56;;;24.84;75.45
19890;BME280;10107;51.198;6.824;2023-07-29T13:49:10;-21978.25;;;25.55;72.54
19890;BME280;10107;51.198;6.824;2023-07-29T13:53:12;-21987.94;;;25.93;68.92
19890;BME280;10107;51.198;6.824;2023-07-29T13:57:14;-21988.56;;;25.96;68.94
19890;BME280;10107;51.198;6.824;2023-07-29T14:01:15;-21989.59;;;26.00;69.37
19890;BME280;10107;51.198;6.824;2023-07-29T14:05:18;-21978.78;;;25.57;71.19
19890;BME280;10107;51.198;6.824;2023-07-29T14:09:20;-21970.38;;;25.23;76.98
19890;BME280;10107;51.198;6.824;2023-07-29T14:13:22;-21966.78;;;25.09;82.86
19890;BME280;10107;51.198;6.824;2023-07-29T14:17:24;-21957.22;;;24.71;86.42
19890;BME280;10107;51.198;6.824;2023-07-29T14:21:27;-21958.88;;;24.78;87.02
19890;BME280;10107;51.198;6.824;2023-07-29T14:25:28;-21958.25;;;24.75;89.10
19890;BME280;10107;51.198;6.824;2023-07-29T14:29:30;-21963.66;;;24.97;86.98
19890;BME280;10107;51.198;6.824;2023-07-29T14:33:32;-21972.59;;;25.32;85.19
19890;BME280;10107;51.198;6.824;2023-07-29T14:37:35;-21977.75;;;25.53;84.15
19890;BME280;10107;51.198;6.824;2023-07-29T14:41:36;-21979.41;;;25.59;83.49
19890;BME280;10107;51.198;6.824;2023-07-29T14:45:38;-21972.84;;;25.33;82.82
19890;BME280;10107;51.198;6.824;2023-07-29T14:49:40;-21963.53;;;24.96;84.13
19890;BME280;10107;51.198;6.824;2023-07-29T14:53:43;-21962.91;;;24.94;82.76
19890;BME280;10107;51.198;6.824;2023-07-29T14:57:44;-21968.06;;;25.14;78.84
19890;BME280;10107;51.198;6.824;2023-07-29T15:01:46;-21967.66;;;25.13;77.71
19890;BME280;10107;51.198;6.824;2023-07-29T15:05:49;-21978.53;;;25.56;77.11
19890;BME280;10107;51.198;6.824;2023-07-29T15:09:52;-21983.28;;;25.75;75.79
19890;BME280;10107;51.198;6.824;2023-07-29T15:13:53;-21991.16;;;26.06;71.96
19890;BME280;10107;51.198;6.824;2023-07-29T15:17:55;-22007.78;;;26.72;69.09
19890;BME280;10107;51.198;6.824;2023-07-29T15:21:57;-22011.88;;;26.89;67.80
19890;BME280;10107;51.198;6.824;2023-07-29T15:26:00;-21997.09;;;26.30;69.05
19890;BME280;10107;51.198;6.824;2023-07-29T15:30:02;-21986.13;;;25.86;68.80
19890;BME280;10107;51.198;6.824;2023-07-29T15:34:03;-21981.34;;;25.67;71.10
19890;BME280;10107;51.198;6.824;2023-07-29T15:38:06;-21992.44;;;26.11;68.46
19890;BME280;10107;51.198;6.824;2023-07-29T15:42:09;-22000.03;;;26.41;68.08
19890;BME280;10107;51.198;6.824;2023-07-29T15:46:11;-21988.72;;;25.96;69.63
19890;BME280;10107;51.198;6.824;2023-07-29T15:50:13;-21979.28;;;25.59;70.12
19890;BME280;10107;51.198;6.824;2023-07-29T15:54:15;-21977.75;;;25.53;73.05
19890;BME280;10107;51.198;6.824;2023-07-29T15:58:18;-21975.28;;;25.43;74.34
19890;BME280;10107;51.198;6.824;2023-07-29T16:02:19;-21969.88;;;25.21;74.67
19890;BME280;10107;51.198;6.824;2023-07-29T16:06:21;-21971.94;;;25.29;73.46
19890;BME280;10107;51.198;6.824;2023-07-29T16:10:23;-21971.81;;;25.29;72.58
19890;BME280;10107;51.198;6.824;2023-07-29T16:14:26;-21968.97;;;25.18;73.66
19890;BME280;10107;51.198;6.824;2023-07-29T16:18:28;-21963.28;;;24.95;75.38
19890;BME280;10107;51.198;6.824;2023-07-29T16:22:29;-21961.47;;;24.88;75.75
19890;BME280;10107;51.198;6.824;2023-07-29T16:26:31;-21965.22;;;25.03;73.43
19890;BME280;10107;51.198;6.824;2023-07-29T16:30:34;-21962.38;;;24.92;74.31
19890;BME280;10107;51.198;6.824;2023-07-29T16:34:36;-21962.25;;;24.91;73.90
19890;BME280;10107;51.198;6.824;2023-07-29T16:38:37;-21956.81;;;24.69;75.14
19890;BME280;10107;51.198;6.824;2023-07-29T16:42:39;-21950.75;;;24.45;76.86
19890;BME280;10107;51.198;6.824;2023-07-29T16:46:42;-21947.25;;;24.31;78.06
19890;BME280;10107;51.198;6.824;2023-07-29T16:50:44;-21949.97;;;24.42;77.05
19890;BME280;10107;51.198;6.824;2023-07-29T16:54:45;-21947.75;;;24.34;77.12
19890;BME280;10107;51.198;6.824;2023-07-29T16:58:47;-21943.13;;;24.15;78.88
19890;BME280;10107;51.198;6.824;2023-07-29T17:02:50;-21944.66;;;24.21;78.00
19890;BME280;10107;51.198;6.824;2023-07-29T17:06:52;-21946.88;;;24.30;78.58
19890;BME280;10107;51.198;6.824;2023-07-29T17:10:54;-21950.34;;;24.44;77.02
19890;BME280;10107;51.198;6.824;2023-07-29T17:14:56;-21949.97;;;24.42;77.82
19890;BME280;10107;51.198;6.824;2023-07-29T17:18:59;-21949.72;;;24.41;77.20
19890;BME280;10107;51.198;6.824;2023-07-29T17:23:01;-21949.06;;;24.39;77.29
19890;BME280;10107;51.198;6.824;2023-07-29T17:27:04;-21946.47;;;24.28;77.66
19890;BME280;10107;51.198;6.824;2023-07-29T17:31:05;-21938.19;;;23.96;79.50
19890;BME280;10107;51.198;6.824;2023-07-29T17:35:09;-21932.75;;;23.74;80.75
19890;BME280;10107;51.198;6.824;2023-07-29T17:39:10;-21931.59;;;23.69;82.22
19890;BME280;10107;51.198;6.824;2023-07-29T17:43:12;-21932.50;;;23.73;82.49
19890;BME280;10107;51.198;6.824;2023-07-29T17:47:14;-21929.53;;;23.61;84.15
19890;BME280;10107;51.198;6.824;2023-07-29T17:51:20;-21924.09;;;23.40;86.99
19890;BME280;10107;51.198;6.824;2023-07-29T17:55:21;-21918.00;;;23.16;90.26
19890;BME280;10107;51.198;6.824;2023-07-29T17:59:23;-21910.22;;;22.85;94.14
19890;BME280;10107;51.198;6.824;2023-07-29T18:03:24;-21902.41;;;22.54;96.00
19890;BME280;10107;51.198;6.824;2023-07-29T18:07:28;-21897.88;;;22.36;99.53
19890;BME280;10107;51.198;6.824;2023-07-29T18:11:29;-21897.50;;;22.34;100.00
19890;BME280;10107;51.198;6.824;2023-07-29T18:15:31;-21894.25;;;22.22;100.00
19890;BME280;10107;51.198;6.824;2023-07-29T18:19:33;-21890.88;;;22.08;100.00
19890;BME280;10107;51.198;6.824;2023-07-29T18:23:36;-21888.53;;;21.99;100.00
19890;BME280;10107;51.198;6.824;2023-07-29T18:27:38;-21882.56;;;21.75;100.00
19890;BME280;10107;51.198;6.824;2023-07-29T18:31:39;-21872.28;;;21.35;100.00
19890;BME280;10107;51.198;6.824;2023-07-29T18:35:41;-21856.81;;;20.74;100.00
19890;BME280;10107;51.198;6.824;2023-07-29T18:39:44;-21845.19;;;20.28;100.00
19890;BME280;10107;51.198;6.824;2023-07-29T18:43:46;-21837.13;;;19.96;100.00
19890;BME280;10107;51.198;6.824;2023-07-29T18:47:48;-21832.03;;;19.76;100.00
19890;BME280;10107;51.198;6.824;2023-07-29T18:51:50;-21831.66;;;19.75;100.00
19890;BME280;10107;51.198;6.824;2023-07-29T18:55:53;-21832.69;;;19.79;100.00
19890;BME280;10107;51.198;6.824;2023-07-29T18:59:55;-21834.91;;;19.88;100.00
19890;BME280;10107;51.198;6.824;2023-07-29T19:03:57;-21835.56;;;19.90;100.00
19890;BME280;10107;51.198;6.824;2023-07-29T19:07:59;-21835.03;;;19.88;100.00
19890;BME280;10107;51.198;6.824;2023-07-29T19:12:02;-21834.66;;;19.87;100.00
19890;BME280;10107;51.198;6.824;2023-07-29T19:16:04;-21834.66;;;19.87;100.00
19890;BME280;10107;51.198;6.824;2023-07-29T19:20:10;-21833.22;;;19.81;100.00
19890;BME280;10107;51.198;6.824;2023-07-29T19:24:11;-21828.78;;;19.64;100.00
19890;BME280;10107;51.198;6.824;2023-07-29T19:28:15;-21826.69;;;19.55;100.00
19890;BME280;10107;51.198;6.824;2023-07-29T19:32:17;-21825.78;;;19.52;100.00
19890;BME280;10107;51.198;6.824;2023-07-29T19:36:19;-21822.63;;;19.39;100.00
19890;BME280;10107;51.198;6.824;2023-07-29T19:40:20;-21820.03;;;19.29;100.00
19890;BME280;10107;51.198;6.824;2023-07-29T19:44:23;-21818.97;;;19.25;100.00
19890;BME280;10107;51.198;6.824;2023-07-29T19:48:26;-21817.28;;;19.18;100.00
19890;BME280;10107;51.198;6.824;2023-07-29T19:52:28;-21815.97;;;19.13;100.00
19890;BME280;10107;51.198;6.824;2023-07-29T19:56:29;-21813.91;;;19.05;100.00
19890;BME280;10107;51.198;6.824;2023-07-29T20:00:32;-21812.47;;;18.99;100.00
19890;BME280;10107;51.198;6.824;2023-07-29T20:04:34;-21811.81;;;18.97;100.00
19890;BME280;10107;51.198;6.824;2023-07-29T20:08:35;-21810.75;;;18.93;100.00
19890;BME280;10107;51.198;6.824;2023-07-29T20:12:37;-21808.94;;;18.86;100.00
19890;BME280;10107;51.198;6.824;2023-07-29T20:16:40;-21807.75;;;18.81;100.00
19890;BME280;10107;51.198;6.824;2023-07-29T20:20:42;-21806.84;;;18.77;100.00
19890;BME280;10107;51.198;6.824;2023-07-29T20:24:43;-21805.91;;;18.74;100.00
19890;BME280;10107;51.198;6.824;2023-07-29T20:28:45;-21803.56;;;18.65;100.00
19890;BME280;10107;51.198;6.824;2023-07-29T20:32:50;-21803.56;;;18.65;100.00
19890;BME280;10107;51.198;6.824;2023-07-29T20:36:51;-21803.97;;;18.66;100.00
19890;BME280;10107;51.198;6.824;2023-07-29T20:40:54;-21805.53;;;18.72;100.00
19890;BME280;10107;51.198;6.824;2023-07-29T20:44:56;-21807.22;;;18.79;100.00
19890;BME280;10107;51.198;6.824;2023-07-29T20:48:59;-21807.22;;;18.79;100.00
19890;BME280;10107;51.198;6.824;2023-07-29T20:53:00;-21806.56;;;18.76;100.00
19890;BME280;10107;51.198;6.824;2023-07-29T20:57:02;-21805.53;;;18.72;100.00
19890;BME280;10107;51.198;6.824;2023-07-29T21:01:04;-21805.41;;;18.72;100.00
19890;BME280;10107;51.198;6.824;2023-07-29T21:05:08;-21804.34;;;18.68;100.00